Latest Weather Observations for Wadeye (Port Keats)

IDD60801

Issued at 11:35 am CST Thursday 24 July 2014 (issued every 30 minutes, with the page automatically refreshed every 10 minutes)

About weather observations | Map of weather stations | Latest weather observations for NT | Other Formats
Station Details ID: 014948 Name: PORT KEATS AIRPORT Lat: -14.25 Lon: 129.53 Height: 28.0 m
Data from the previous 72 hours. | See also: Recent months at Wadeye (Port Keats)
Date/Time
CST
Temp
°C
App
Temp
°C
Dew
Point
Rel
Hum
%
Delta-T
°C
Wind Press
QNH
hPa
Press
MSL
hPa
Rain
since 9 am
mm
Dir
 
Spd
km/h
Gust
km/h
Spd
kts
Gust
kts
24/11:30am 27.5 28.9 17.7 55 6.2 WSW 7 13 4 7 1015.3 - 0.0
24/11:00am 26.3 27.5 18.2 61 5.1 W 9 15 5 8 1015.3 - 0.0
24/10:30am 25.2 28.0 19.6 71 3.6 SSW 4 9 2 5 1015.3 - 0.0
24/10:00am 24.5 27.5 20.0 76 2.9 NW 4 11 2 6 1015.3 - 0.0
24/09:30am 24.1 27.6 19.6 76 2.9 CALM 0 6 0 3 1015.4 - 0.0
24/09:00am 21.5 24.4 18.3 82 2.0 CALM 0 0 0 0 1015.2 1015.0 0.0
24/08:30am 19.0 21.6 17.5 91 0.9 CALM 0 0 0 0 1014.8 - 0.0
24/08:00am 17.4 18.7 16.1 92 0.8 ENE 4 6 2 3 1014.5 - 0.0
24/07:30am 15.8 17.3 14.7 93 0.6 CALM 0 0 0 0 1013.8 - 0.0
24/07:00am 15.9 17.5 14.8 93 0.6 CALM 0 0 0 0 1013.4 - 0.0
24/06:30am 15.2 16.4 13.9 92 0.7 CALM 0 0 0 0 1013.1 - 0.0
24/06:00am 15.4 16.8 14.3 93 0.6 SW 0 0 0 0 1012.9 1012.7 0.0
24/05:30am 15.5 16.8 14.2 92 0.7 CALM 0 0 0 0 1012.6 - 0.0
24/05:00am 15.9 17.5 14.8 93 0.6 CALM 0 0 0 0 1012.5 - 0.0
24/04:30am 15.7 15.8 14.4 92 0.7 SW 7 7 4 4 1012.4 - 0.0
24/04:00am 16.3 17.9 14.8 91 0.9 CALM 0 0 0 0 1012.2 - 0.0
24/03:30am 17.4 19.5 16.3 93 0.7 CALM 0 0 0 0 1012.3 - 0.0
24/03:00am 17.4 18.9 16.6 95 0.5 ESE 4 7 2 4 1012.6 1012.4 0.0
24/02:30am 17.2 19.0 15.4 89 1.1 CALM 0 0 0 0 1012.9 - 0.0
24/02:00am 18.1 20.0 16.6 91 0.9 ENE 2 6 1 3 1013.1 - 0.0
24/01:30am 18.2 20.2 17.0 93 0.7 E 2 6 1 3 1013.2 - 0.0
24/01:00am 17.2 17.8 15.4 89 1.1 S 6 9 3 5 1013.4 - 0.0
24/12:30am 18.1 19.1 16.3 89 1.1 SSE 6 7 3 4 1013.4 - 0.0
24/12:00am 18.0 19.2 16.0 88 1.2 SSE 4 7 2 4 1013.5 1013.3 0.0
 
Date/Time
CST
Temp
°C
App
Temp
°C
Dew
Point
Rel
Hum
%
Delta-T
°C
Wind Press
QNH
hPa
Press
MSL
hPa
Rain
since 9 am
mm
Dir
 
Spd
km/h
Gust
km/h
Spd
kts
Gust
kts
23/11:30pm 18.6 20.8 16.6 88 1.2 CALM 0 0 0 0 1013.4 - 0.0
23/11:00pm 18.8 21.0 16.6 87 1.3 CALM 0 0 0 0 1013.4 - 0.0
23/10:30pm 19.4 21.8 17.0 86 1.5 CALM 0 0 0 0 1013.5 - 0.0
23/10:00pm 20.5 23.1 17.5 83 1.8 CALM 0 0 0 0 1013.5 - 0.0
23/09:30pm 20.9 23.6 17.7 82 2.0 CALM 0 0 0 0 1013.5 - 0.0
23/09:00pm 21.4 24.2 18.0 81 2.1 CALM 0 0 0 0 1013.3 1013.1 0.0
23/08:30pm 22.1 24.9 17.9 77 2.6 CALM 0 0 0 0 1012.9 - 0.0
23/08:00pm 22.7 24.5 18.3 76 2.8 SW 6 9 3 5 1012.5 - 0.0
23/07:30pm 23.1 24.7 18.2 74 3.1 WSW 7 9 4 5 1012.3 - 0.0
23/07:00pm 23.7 24.8 18.1 71 3.5 WSW 9 13 5 7 1012.0 - 0.0
23/06:30pm 24.6 24.8 16.8 62 4.8 W 11 17 6 9 1011.9 - 0.0
23/06:00pm 26.2 26.0 15.6 52 6.5 WSW 11 19 6 10 1011.8 1011.6 0.0
23/05:30pm 26.7 26.6 16.0 52 6.6 WNW 11 19 6 10 1011.7 - 0.0
23/05:00pm 27.2 25.7 14.2 44 7.8 WNW 15 20 8 11 1011.7 - 0.0
23/04:30pm 28.0 26.6 13.5 41 8.6 W 13 17 7 9 1011.5 - 0.0
23/04:00pm 28.3 26.7 13.8 41 8.7 WNW 15 20 8 11 1011.4 - 0.0
23/03:30pm 28.3 25.8 13.4 40 8.8 W 19 24 10 13 1011.5 - 0.0
23/03:00pm 29.1 26.5 13.3 37 9.4 NW 19 26 10 14 1011.6 1011.4 0.0
23/02:30pm 29.6 27.6 13.8 38 9.5 NNW 17 24 9 13 1011.8 - 0.0
23/02:00pm 29.4 27.9 11.9 34 10.2 NNW 11 17 6 9 1012.4 - 0.0
23/01:30pm 29.3 27.4 11.8 34 10.2 N 13 26 7 14 1013.0 - 0.0
23/01:00pm 28.4 25.8 11.9 36 9.6 N 17 24 9 13 1013.6 - 0.0
23/12:30pm 29.0 26.3 11.6 34 10.1 N 17 26 9 14 1013.9 - 0.0
23/12:00pm 28.3 26.0 13.0 39 9.0 N 17 20 9 11 1014.5 1014.3 0.0
23/11:30am 27.7 26.9 15.0 45 7.7 N 13 22 7 12 1015.0 - 0.0
23/11:00am 26.7 26.6 16.0 52 6.6 N 11 17 6 9 1015.3 - 0.0
23/10:30am 26.5 26.0 14.9 49 7.0 N 11 17 6 9 1015.5 - 0.0
23/10:00am 25.2 26.9 18.4 66 4.3 NE 7 11 4 6 1015.8 - 0.0
23/09:30am 23.9 25.5 17.9 69 3.8 ENE 6 9 3 5 1015.9 - 0.0
23/09:00am 22.1 24.3 19.5 85 1.7 E 7 9 4 5 1015.7 1015.5 0.0
23/08:30am 18.1 20.7 17.5 96 0.4 CALM 0 0 0 0 1015.4 - 0.0
23/08:00am 15.8 17.5 15.2 96 0.3 CALM 0 0 0 0 1015.1 - 0.0
23/07:30am 15.5 17.0 14.7 95 0.5 CALM 0 0 0 0 1014.9 - 0.0
23/07:00am 16.4 18.4 15.9 97 0.3 CALM 0 0 0 0 1014.6 - 0.0
23/06:30am 15.6 17.2 15.0 96 0.3 CALM 0 0 0 0 1014.2 - 0.0
23/06:00am 15.5 16.6 14.7 95 0.5 SSW 2 6 1 3 1014.0 1013.8 0.0
23/05:30am 15.9 17.6 15.1 95 0.5 CALM 0 0 0 0 1014.0 - 0.0
23/05:00am 16.1 17.1 15.3 95 0.5 S 4 6 2 3 1014.1 - 0.0
23/04:30am 16.5 17.2 15.7 95 0.5 SSE 6 7 3 4 1014.2 - 0.0
23/04:00am 17.1 18.2 16.5 96 0.4 SE 6 6 3 3 1014.3 - 0.0
23/03:30am 17.6 18.9 17.1 97 0.3 E 6 9 3 5 1014.5 - 0.0
23/03:00am 18.3 19.7 17.8 97 0.3 ENE 7 15 4 8 1014.3 1014.1 0.0
23/02:30am 17.7 20.1 16.9 95 0.5 CALM 0 0 0 0 1014.2 - 0.0
23/02:00am 18.3 19.8 17.5 95 0.5 ENE 6 9 3 5 1014.5 - 0.0
23/01:30am 18.5 20.0 17.7 95 0.5 ESE 6 7 3 4 1014.6 - 0.0
23/01:00am 18.4 19.5 17.2 93 0.7 ENE 7 11 4 6 1014.9 - 0.0
23/12:30am 19.0 21.6 17.5 91 0.9 CALM 0 2 0 1 1014.5 - 0.0
23/12:00am 19.1 21.7 17.6 91 0.9 CALM 0 0 0 0 1014.4 1014.2 0.0
 
Date/Time
CST
Temp
°C
App
Temp
°C
Dew
Point
Rel
Hum
%
Delta-T
°C
Wind Press
QNH
hPa
Press
MSL
hPa
Rain
since 9 am
mm
Dir
 
Spd
km/h
Gust
km/h
Spd
kts
Gust
kts
22/11:30pm 19.8 21.4 17.9 89 1.2 SE 6 6 3 3 1014.4 - 0.0
22/11:00pm 20.4 22.4 19.1 92 0.8 SSW 7 11 4 6 1014.2 - 0.0
22/10:30pm 20.7 21.8 18.8 89 1.2 SSW 11 15 6 8 1014.2 - 0.0
22/10:00pm 20.7 22.3 19.2 91 0.9 SSW 9 13 5 7 1014.2 - 0.0
22/09:30pm 20.6 22.2 19.1 91 0.9 SSW 9 13 5 7 1014.1 - 0.0
22/09:00pm 20.2 21.7 17.6 85 1.6 SSW 6 9 3 5 1014.1 1013.9 0.0
22/08:30pm 21.3 23.6 18.5 84 1.8 S 4 7 2 4 1013.9 - 0.0
22/08:00pm 22.0 23.8 18.4 80 2.3 SSW 6 7 3 4 1013.7 - 0.0
22/07:30pm 22.4 24.1 18.4 78 2.5 WSW 7 9 4 5 1013.2 - 0.0
22/07:00pm 23.2 24.8 18.3 74 3.1 WSW 7 11 4 6 1012.9 - 0.0
22/06:30pm 24.1 25.2 18.1 69 3.8 W 9 15 5 8 1012.7 - 0.0
22/06:00pm 25.4 25.8 17.3 61 5.1 W 11 17 6 9 1012.3 1012.1 0.0
22/05:30pm 26.4 25.8 16.6 55 6.1 WSW 15 22 8 12 1012.0 - 0.0
22/05:00pm 27.3 27.4 16.6 52 6.6 W 11 19 6 10 1011.8 - 0.0
22/04:30pm 27.8 27.7 17.0 51 6.8 W 13 20 7 11 1011.6 - 0.0
22/04:00pm 28.4 27.9 16.0 47 7.7 W 13 22 7 12 1011.7 - 0.0
22/03:30pm 31.2 27.1 6.3 21 13.3 SE 17 24 9 13 1011.8 - 0.0
22/03:00pm 30.7 26.7 6.6 22 12.9 E 17 24 9 13 1012.2 1012.0 0.0
22/02:30pm 30.6 27.4 8.3 25 12.3 E 15 20 8 11 1012.5 - 0.0
22/02:00pm 29.8 26.5 8.2 26 11.9 E 15 26 8 14 1013.1 - 0.0
22/01:30pm 30.3 26.5 7.5 24 12.4 E 17 24 9 13 1013.7 - 0.0
22/01:00pm 30.3 26.5 7.5 24 12.4 NE 17 32 9 17 1014.3 - 0.0
22/12:30pm 29.3 26.2 8.9 28 11.3 NE 15 20 8 11 1014.8 - 0.0
22/12:00pm 29.4 27.0 11.5 33 10.3 NNE 15 20 8 11 1015.4 1015.2 0.0
22/11:30am 27.7 26.7 13.3 41 8.5 ENE 11 17 6 9 1016.0 - 0.0
22/11:00am 27.2 26.0 13.9 44 7.9 ENE 13 19 7 10 1016.7 - 0.0
22/10:30am 25.9 25.3 13.4 46 7.3 ENE 9 15 5 8 1017.2 - 0.0
22/10:00am 24.2 22.2 10.1 41 7.8 E 11 15 6 8 1017.3 - 0.0
22/09:30am 23.5 21.5 8.8 39 7.9 E 9 13 5 7 1017.1 - 0.0
22/09:00am 21.6 19.5 8.1 42 7.1 E 9 11 5 6 1016.9 1016.7 0.0
22/08:30am 20.8 18.7 8.4 45 6.5 ESE 9 13 5 7 1016.7 - 0.0
22/08:21am 20.3 18.5 9.5 50 5.8 ESE 9 13 5 7 1016.7 - 0.0
22/08:00am 15.3 13.7 8.8 65 3.3 SSE 7 9 4 5 1016.4 - 0.0
22/07:30am 12.7 11.1 8.6 76 2.0 SSE 7 9 4 5 1016.1 - 0.0
22/07:00am 12.4 12.1 8.7 78 1.8 CALM 0 4 0 2 1015.7 - 0.0
22/06:30am 12.6 11.1 9.1 79 1.8 SE 7 9 4 5 1015.4 - 0.0
22/06:00am 12.9 12.7 9.0 77 2.0 CALM 0 0 0 0 1015.3 1015.1 0.0
22/05:30am 15.0 14.9 9.6 70 2.8 CALM 0 0 0 0 1015.3 - 0.0
22/05:00am 15.9 14.7 10.4 70 2.9 NE 7 15 4 8 1015.3 - 0.0
22/04:30am 15.2 15.3 10.2 72 2.6 CALM 0 4 0 2 1014.8 - 0.0
22/04:00am 15.6 14.4 10.2 70 2.8 E 7 11 4 6 1014.7 - 0.0
22/03:30am 13.8 12.1 10.0 78 2.0 SSE 9 11 5 6 1014.5 - 0.0
22/03:00am 13.4 12.5 10.6 83 1.5 SSE 6 7 3 4 1014.4 1014.2 0.0
22/02:30am 13.5 13.6 10.3 81 1.7 CALM 0 6 0 3 1014.5 - 0.0
22/02:00am 13.8 14.0 10.4 80 1.8 CALM 0 0 0 0 1014.6 - 0.0
22/01:30am 14.5 14.7 10.5 77 2.1 CALM 0 0 0 0 1014.8 - 0.0
22/01:00am 15.3 15.6 10.9 75 2.3 CALM 0 0 0 0 1015.0 - 0.0
22/12:30am 15.3 14.6 11.9 80 1.8 S 7 7 4 4 1015.0 - 0.0
22/12:00am 15.0 14.5 12.1 83 1.6 SSW 6 7 3 4 1015.2 1015.0 0.0
 
Date/Time
CST
Temp
°C
App
Temp
°C
Dew
Point
Rel
Hum
%
Delta-T
°C
Wind Press
QNH
hPa
Press
MSL
hPa
Rain
since 9 am
mm
Dir
 
Spd
km/h
Gust
km/h
Spd
kts
Gust
kts
21/11:30pm 15.5 16.2 12.1 80 1.9 CALM 0 0 0 0 1015.1 - 0.0
21/11:00pm 17.1 17.7 12.0 72 2.8 CALM 0 0 0 0 1015.2 - 0.0
21/10:30pm 17.8 18.6 12.7 72 2.8 CALM 0 6 0 3 1015.3 - 0.0
21/10:00pm 18.8 18.9 13.9 73 2.8 E 6 9 3 5 1015.1 - 0.0
21/09:30pm 17.6 17.9 12.3 71 2.9 S 2 7 1 4 1015.0 - 0.0
21/09:00pm 18.4 17.9 12.2 67 3.4 S 6 7 3 4 1015.1 1014.9 0.0
21/08:30pm 19.2 19.9 12.2 64 3.9 CALM 0 4 0 2 1014.9 - 0.0
21/08:00pm 20.7 21.3 11.9 57 4.9 CALM 0 0 0 0 1014.5 - 0.0
21/07:30pm 21.4 21.0 11.1 52 5.7 SW 4 7 2 4 1014.1 - 0.0
21/07:00pm 23.0 23.2 10.4 45 6.9 CALM 0 0 0 0 1013.7 - 0.0
21/06:30pm 24.9 23.9 10.4 40 8.1 WSW 6 7 3 4 1013.5 - 0.0
21/06:00pm 26.7 24.9 9.5 34 9.5 W 9 13 5 7 1013.1 1012.9 0.0
21/05:30pm 27.7 25.3 8.6 30 10.4 W 11 17 6 9 1012.8 - 0.0
21/05:00pm 28.9 26.4 8.0 27 11.4 W 11 19 6 10 1012.6 - 0.0
21/04:30pm 29.1 26.5 7.6 26 11.6 W 11 17 6 9 1012.7 - 0.0
21/04:00pm 29.6 27.0 9.2 28 11.4 W 13 20 7 11 1012.8 - 0.0
21/03:30pm 29.2 26.9 10.3 31 10.7 WNW 13 19 7 10 1013.0 - 0.0
21/03:00pm 28.6 25.5 8.8 29 10.9 WNW 15 24 8 13 1013.2 1013.0 0.0
21/02:30pm 29.6 27.1 9.7 29 11.2 W 13 20 7 11 1013.5 - 0.0
21/02:00pm 31.2 26.0 2.4 16 14.5 SSE 19 26 10 14 1013.9 - 0.0
21/01:30pm 31.1 27.5 3.2 17 14.2 ESE 11 20 6 11 1014.5 - 0.0
21/01:00pm 30.4 26.5 3.4 18 13.7 E 13 24 7 13 1015.0 - 0.0
21/12:30pm 30.9 26.3 3.8 18 13.9 SE 17 30 9 16 1015.8 - 0.0
21/12:00pm 29.7 25.2 4.4 20 13.0 E 17 20 9 11 1016.2 1016.0 0.0

Other Formats:

Comma delimited format used in spreadsheet applications
http://www.bom.gov.au/fwo/IDD60801/IDD60801.95111.axf

JavaScript Object Notation format (JSON) in row-major order
http://www.bom.gov.au/fwo/IDD60801/IDD60801.95111.json